createdAt,value
2017-07-12T00:00:52.219Z,19.75
2017-07-12T00:03:19.735Z,19.85
2017-07-12T00:05:47.283Z,19.78
2017-07-12T00:08:14.800Z,19.82
2017-07-12T00:10:42.360Z,19.74
2017-07-12T00:13:09.890Z,19.61
2017-07-12T00:15:37.470Z,19.43
2017-07-12T00:18:04.999Z,19.31
2017-07-12T00:20:32.543Z,19.55
2017-07-12T00:23:00.056Z,19.67
2017-07-12T00:25:27.622Z,19.73
2017-07-12T00:27:55.167Z,19.66
2017-07-12T00:30:22.705Z,19.68
2017-07-12T00:32:50.242Z,19.72
2017-07-12T00:35:17.773Z,19.63
2017-07-12T00:37:45.308Z,19.87
2017-07-12T00:40:12.868Z,19.89
2017-07-12T00:42:40.431Z,19.79
2017-07-12T00:45:07.944Z,19.85
2017-07-12T00:47:35.472Z,19.90
2017-07-12T00:50:03.027Z,19.75
2017-07-12T00:52:30.623Z,19.86
2017-07-12T00:54:58.150Z,19.71
2017-07-12T00:57:25.711Z,19.56
2017-07-12T00:59:53.225Z,19.54
2017-07-12T01:02:20.772Z,19.51
2017-07-12T01:04:48.292Z,19.62
2017-07-12T01:07:15.859Z,19.65
2017-07-12T01:09:43.377Z,19.70
2017-07-12T01:12:10.956Z,19.67
2017-07-12T01:14:38.531Z,19.69
2017-07-12T01:17:06.069Z,19.69
2017-07-12T01:19:33.689Z,19.72
2017-07-12T01:22:01.243Z,19.80
2017-07-12T01:24:28.778Z,19.84
2017-07-12T01:26:56.302Z,19.82
2017-07-12T01:29:23.836Z,19.76
2017-07-12T01:31:51.391Z,19.82
2017-07-12T01:34:18.951Z,19.66
2017-07-12T01:36:46.482Z,19.62
2017-07-12T01:39:13.996Z,19.66
2017-07-12T01:41:41.568Z,19.71
2017-07-12T01:44:09.119Z,19.58
2017-07-12T01:46:36.648Z,19.61
2017-07-12T01:49:04.171Z,19.69
2017-07-12T01:51:31.856Z,19.58
2017-07-12T01:53:59.431Z,19.59
2017-07-12T01:56:26.949Z,19.42
2017-07-12T01:58:54.508Z,19.28
2017-07-12T02:01:22.059Z,19.42
2017-07-12T02:03:49.628Z,19.40
2017-07-12T02:06:17.177Z,19.43
2017-07-12T02:08:44.743Z,19.51
2017-07-12T02:11:12.269Z,19.56
2017-07-12T02:13:39.821Z,19.49
2017-07-12T02:16:07.323Z,19.49
2017-07-12T02:18:34.868Z,19.49
2017-07-12T02:21:02.392Z,19.45
2017-07-12T02:23:30.023Z,19.40
2017-07-12T02:25:57.533Z,19.44
2017-07-12T02:28:25.101Z,19.39
2017-07-12T02:30:52.610Z,19.45
2017-07-12T02:33:20.151Z,19.50
2017-07-12T02:35:47.700Z,19.64
2017-07-12T02:38:15.301Z,19.55
2017-07-12T02:40:42.825Z,19.56
2017-07-12T02:43:10.385Z,19.46
2017-07-12T02:45:37.891Z,19.56
2017-07-12T02:48:05.419Z,19.57
2017-07-12T02:50:32.947Z,19.51
2017-07-12T02:53:00.468Z,19.50
2017-07-12T02:55:28.003Z,19.52
2017-07-12T02:57:55.520Z,19.61
2017-07-12T03:00:23.068Z,19.60
2017-07-12T03:02:50.602Z,19.62
2017-07-12T03:05:18.143Z,19.54
2017-07-12T03:07:45.656Z,19.53
2017-07-12T03:10:13.201Z,19.67
2017-07-12T03:12:40.707Z,19.65
2017-07-12T03:15:08.244Z,19.49
2017-07-12T03:17:35.768Z,19.49
2017-07-12T03:20:03.379Z,19.35
2017-07-12T03:22:30.911Z,19.37
2017-07-12T03:24:58.453Z,19.20
2017-07-12T03:27:25.964Z,19.14
2017-07-12T03:29:53.516Z,19.29
2017-07-12T03:32:21.031Z,19.32
2017-07-12T03:34:48.574Z,19.12
2017-07-12T03:37:16.107Z,18.92
2017-07-12T03:39:55.267Z,19.08
2017-07-12T03:42:22.779Z,19.12
2017-07-12T03:44:50.337Z,19.21
2017-07-12T03:47:17.856Z,19.14
2017-07-12T03:49:45.464Z,19.12
2017-07-12T03:52:12.993Z,19.13
2017-07-12T03:54:40.537Z,19.17
2017-07-12T03:57:08.132Z,19.21
2017-07-12T03:59:35.705Z,19.21
2017-07-12T04:02:03.295Z,19.25
2017-07-12T04:04:30.816Z,19.26
2017-07-12T04:06:58.370Z,19.29
2017-07-12T04:09:25.884Z,19.33
2017-07-12T04:11:53.560Z,19.24
2017-07-12T04:14:21.079Z,19.22
2017-07-12T04:16:48.614Z,19.24
2017-07-12T04:19:16.227Z,19.22
2017-07-12T04:21:43.772Z,19.10
2017-07-12T04:24:11.330Z,18.93
2017-07-12T04:26:38.852Z,18.89
2017-07-12T04:29:06.391Z,18.96
2017-07-12T04:31:33.931Z,18.91
2017-07-12T04:34:01.511Z,18.87
2017-07-12T04:36:29.026Z,18.93
2017-07-12T04:38:56.572Z,18.94
2017-07-12T04:41:24.086Z,18.89
2017-07-12T04:43:51.642Z,18.94
2017-07-12T04:46:19.152Z,18.92
2017-07-12T04:48:46.675Z,18.96
2017-07-12T04:51:14.220Z,18.88
2017-07-12T04:53:41.753Z,18.96
2017-07-12T04:56:09.311Z,18.87
2017-07-12T04:58:36.831Z,18.77
2017-07-12T05:01:04.482Z,18.90
2017-07-12T05:03:32.000Z,18.90
2017-07-12T05:05:59.567Z,18.88
2017-07-12T05:08:27.103Z,18.80
2017-07-12T05:10:54.695Z,18.68
2017-07-12T05:13:22.206Z,18.90
2017-07-12T05:15:49.852Z,18.68
2017-07-12T05:18:17.411Z,18.63
2017-07-12T05:20:45.103Z,18.83
2017-07-12T05:23:12.650Z,18.68
2017-07-12T05:25:40.200Z,18.87
2017-07-12T05:28:07.717Z,18.85
2017-07-12T05:30:35.252Z,18.78
2017-07-12T05:33:02.769Z,18.80
2017-07-12T05:35:30.367Z,18.47
2017-07-12T05:37:57.891Z,18.58
2017-07-12T05:40:25.445Z,18.58
2017-07-12T05:42:52.973Z,18.50
2017-07-12T05:45:20.516Z,18.47
2017-07-12T05:47:48.027Z,18.51
2017-07-12T05:50:15.589Z,18.35
2017-07-12T05:52:43.132Z,18.40
2017-07-12T05:55:10.660Z,18.50
2017-07-12T05:57:38.241Z,18.49
2017-07-12T06:00:05.808Z,18.51
2017-07-12T06:02:33.328Z,18.55
2017-07-12T06:05:00.846Z,18.52
2017-07-12T06:07:28.381Z,18.43
2017-07-12T06:09:55.888Z,18.43
2017-07-12T06:12:23.436Z,18.43
2017-07-12T06:14:50.939Z,18.43
2017-07-12T06:17:18.478Z,18.55
2017-07-12T06:19:46.044Z,18.59
2017-07-12T06:22:13.672Z,18.67
2017-07-12T06:24:41.240Z,18.73
2017-07-12T06:27:08.801Z,18.60
2017-07-12T06:29:36.339Z,18.61
2017-07-12T06:32:03.984Z,18.68
2017-07-12T06:34:31.544Z,18.77
2017-07-12T06:36:59.087Z,18.71
2017-07-12T06:39:26.613Z,18.68
2017-07-12T06:41:54.148Z,18.76
2017-07-12T06:44:21.656Z,18.75
2017-07-12T06:46:49.220Z,18.73
2017-07-12T06:49:16.743Z,18.70
2017-07-12T06:51:44.249Z,18.74
2017-07-12T06:54:11.805Z,18.69
2017-07-12T06:56:39.320Z,18.73
2017-07-12T06:59:06.864Z,18.72
2017-07-12T07:01:34.395Z,18.70
2017-07-12T07:04:01.930Z,18.69
2017-07-12T07:06:29.439Z,18.75
2017-07-12T07:08:57.041Z,18.88
2017-07-12T07:11:24.547Z,18.83
2017-07-12T07:13:52.092Z,18.74
2017-07-12T07:16:19.680Z,18.63
2017-07-12T07:18:47.336Z,18.60
2017-07-12T07:21:14.857Z,18.63
2017-07-12T07:23:42.410Z,18.64
2017-07-12T07:26:09.916Z,18.56
2017-07-12T07:28:37.423Z,18.51
2017-07-12T07:31:04.962Z,18.65
2017-07-12T07:33:32.474Z,18.68
2017-07-12T07:36:00.015Z,18.49
2017-07-12T07:38:27.544Z,18.54
2017-07-12T07:40:55.098Z,18.61
2017-07-12T07:43:22.599Z,18.56
2017-07-12T07:45:50.183Z,18.60
2017-07-12T07:48:17.696Z,18.52
2017-07-12T07:50:45.239Z,18.50
2017-07-12T07:53:12.755Z,18.44
2017-07-12T07:55:40.320Z,18.31
2017-07-12T07:58:07.838Z,18.41
2017-07-12T08:00:35.371Z,18.33
2017-07-12T08:03:02.889Z,18.30
2017-07-12T08:05:30.546Z,18.35
2017-07-12T08:07:58.093Z,18.22
2017-07-12T08:10:25.632Z,18.34
2017-07-12T08:12:53.204Z,18.34
2017-07-12T08:15:20.778Z,18.35
2017-07-12T08:17:48.305Z,18.37
2017-07-12T08:20:15.844Z,18.40
2017-07-12T08:22:43.363Z,18.43
2017-07-12T08:25:10.947Z,18.38
2017-07-12T08:27:38.459Z,18.40
2017-07-12T08:30:06.012Z,18.42
2017-07-12T08:32:33.522Z,18.45
2017-07-12T08:35:01.069Z,18.35
2017-07-12T08:37:28.579Z,18.50
2017-07-12T08:39:56.168Z,18.36
2017-07-12T08:42:23.676Z,18.50
2017-07-12T08:44:51.228Z,18.44
2017-07-12T08:47:18.778Z,18.44
2017-07-12T08:49:46.303Z,18.39
2017-07-12T08:52:13.893Z,18.33
2017-07-12T08:54:41.413Z,18.47
2017-07-12T08:57:08.948Z,18.30
2017-07-12T08:59:36.473Z,18.26
2017-07-12T09:02:04.007Z,18.33
2017-07-12T09:04:31.531Z,18.43
2017-07-12T09:06:59.158Z,18.47
2017-07-12T09:09:26.739Z,18.53
2017-07-12T09:11:54.391Z,18.54
2017-07-12T09:14:21.918Z,18.61
2017-07-12T09:16:49.456Z,18.58
2017-07-12T09:19:16.960Z,18.51
2017-07-12T09:21:44.531Z,18.55
2017-07-12T09:24:12.131Z,18.60
2017-07-12T09:34:02.389Z,18.70
2017-07-12T09:36:29.943Z,18.74
2017-07-12T09:38:57.471Z,18.93
2017-07-12T09:41:24.996Z,18.99
2017-07-12T09:43:52.535Z,18.97
2017-07-12T09:46:20.067Z,18.80
2017-07-12T09:48:47.657Z,18.82
2017-07-12T09:51:15.192Z,18.85
2017-07-12T09:53:42.734Z,19.04
2017-07-12T09:56:10.280Z,18.88
2017-07-12T09:58:37.840Z,18.90
2017-07-12T10:01:05.357Z,18.79
2017-07-12T10:03:32.864Z,18.92
2017-07-12T10:06:00.414Z,19.07
2017-07-12T10:08:28.015Z,18.99
2017-07-12T10:10:55.598Z,18.96
2017-07-12T10:13:23.164Z,18.85
2017-07-12T10:15:50.687Z,18.94
2017-07-12T10:18:18.240Z,18.78
2017-07-12T10:20:45.755Z,18.87
2017-07-12T10:23:13.327Z,19.01
2017-07-12T10:25:40.943Z,18.93
2017-07-12T10:28:08.455Z,19.00
2017-07-12T10:30:35.996Z,19.06
2017-07-12T10:33:03.511Z,19.12
2017-07-12T10:35:31.040Z,18.97
2017-07-12T10:37:58.556Z,19.02
2017-07-12T10:40:26.094Z,18.96
2017-07-12T10:42:53.631Z,18.86
2017-07-12T10:45:21.171Z,18.95
2017-07-12T10:47:48.681Z,18.84
2017-07-12T10:50:16.216Z,18.84
2017-07-12T10:52:43.736Z,18.80
2017-07-12T10:55:11.341Z,18.87
2017-07-12T10:57:38.855Z,18.90
2017-07-12T11:00:06.416Z,18.50
2017-07-12T11:02:34.006Z,18.80
2017-07-12T11:05:01.539Z,18.70
2017-07-12T11:07:29.991Z,18.80
2017-07-12T11:09:57.668Z,18.75
2017-07-12T11:12:25.233Z,18.65
2017-07-12T11:14:52.779Z,18.64
2017-07-12T11:17:20.468Z,18.61
2017-07-12T11:19:47.980Z,18.62
2017-07-12T11:22:15.589Z,18.73
2017-07-12T11:24:43.187Z,18.77
2017-07-12T11:27:10.793Z,18.84
2017-07-12T11:29:38.308Z,18.89
2017-07-12T11:32:05.843Z,18.96
2017-07-12T11:34:33.384Z,19.10
2017-07-12T11:37:00.956Z,19.01
2017-07-12T11:39:28.516Z,19.08
2017-07-12T11:41:56.037Z,19.13
2017-07-12T11:44:23.593Z,19.05
2017-07-12T11:46:51.158Z,18.99
2017-07-12T11:49:18.691Z,19.02
2017-07-12T11:51:46.221Z,19.07
2017-07-12T11:54:13.772Z,19.14
2017-07-12T11:56:41.315Z,19.15
2017-07-12T11:59:08.917Z,19.14
2017-07-12T12:01:36.435Z,19.14
2017-07-12T12:04:04.064Z,19.15
2017-07-12T12:06:31.567Z,19.17
2017-07-12T12:08:59.128Z,19.12
2017-07-12T12:11:26.665Z,19.17
2017-07-12T12:13:54.226Z,19.29
2017-07-12T12:16:21.748Z,19.32
2017-07-12T12:18:49.347Z,19.20
2017-07-12T12:21:16.891Z,18.70
2017-07-12T12:23:44.448Z,18.03
2017-07-12T12:26:11.989Z,17.86
2017-07-12T12:28:39.533Z,17.58
2017-07-12T12:31:07.092Z,17.58
2017-07-12T12:33:34.738Z,17.50
2017-07-12T12:36:02.269Z,17.57
2017-07-12T12:38:29.804Z,17.55
2017-07-12T12:40:57.327Z,17.61
2017-07-12T12:43:24.869Z,17.62
2017-07-12T12:45:52.405Z,17.60
2017-07-12T12:48:19.959Z,17.57
2017-07-12T12:50:47.483Z,17.51
2017-07-12T12:53:15.043Z,17.55
2017-07-12T12:55:42.559Z,17.57
2017-07-12T12:58:10.067Z,17.65
2017-07-12T13:00:37.620Z,17.67
2017-07-12T13:03:05.148Z,17.72
2017-07-12T13:05:38.257Z,17.68
2017-07-12T13:08:05.823Z,17.66
2017-07-12T13:10:33.458Z,17.72
2017-07-12T13:13:01.060Z,17.80
2017-07-12T13:15:28.603Z,17.76
2017-07-12T13:17:56.177Z,17.81
2017-07-12T13:20:23.720Z,17.90
2017-07-12T13:22:51.360Z,17.86
2017-07-12T13:25:19.182Z,17.79
2017-07-12T13:27:46.640Z,17.76
2017-07-12T13:30:14.195Z,17.75
2017-07-12T13:32:41.716Z,17.61
2017-07-12T13:35:09.268Z,17.66
2017-07-12T13:37:36.808Z,17.51
2017-07-12T13:40:04.374Z,17.49
2017-07-12T13:42:31.969Z,17.66
2017-07-12T13:44:59.495Z,17.78
2017-07-12T13:47:27.032Z,17.85
2017-07-12T13:49:54.571Z,17.81
2017-07-12T13:52:22.084Z,17.68
2017-07-12T13:54:49.651Z,17.87
2017-07-12T13:57:17.212Z,18.37
2017-07-12T13:59:44.754Z,18.76
2017-07-12T14:02:12.293Z,18.97
2017-07-12T14:04:39.842Z,19.30
2017-07-12T14:07:07.391Z,19.19
2017-07-12T14:09:34.932Z,19.37
2017-07-12T14:12:02.444Z,19.20
2017-07-12T14:14:30.001Z,19.16
2017-07-12T14:16:57.515Z,18.78
2017-07-12T14:19:25.028Z,18.82
2017-07-12T14:21:52.596Z,18.83
2017-07-12T14:24:20.110Z,18.71
2017-07-12T14:26:47.681Z,18.63
2017-07-12T14:29:15.220Z,18.57
2017-07-12T14:31:42.786Z,18.51
2017-07-12T14:34:10.340Z,18.53
2017-07-12T14:36:37.905Z,18.49
2017-07-12T14:39:05.415Z,18.41
2017-07-12T14:41:32.974Z,18.33
2017-07-12T14:44:00.493Z,18.43
2017-07-12T14:46:28.041Z,18.50
2017-07-12T14:48:55.557Z,18.53
2017-07-12T14:51:23.092Z,18.87
2017-07-12T14:53:50.619Z,18.78
2017-07-12T14:56:18.166Z,18.81
2017-07-12T14:58:45.679Z,18.68
2017-07-12T15:01:13.267Z,18.88
2017-07-12T15:03:40.762Z,19.38
2017-07-12T15:06:08.304Z,19.57
2017-07-12T15:08:35.827Z,19.41
2017-07-12T15:11:03.408Z,19.26
2017-07-12T15:13:30.955Z,18.95
2017-07-12T15:15:58.543Z,18.84
2017-07-12T15:18:26.305Z,18.72
2017-07-12T15:20:53.857Z,18.70
2017-07-12T15:23:21.408Z,18.71
2017-07-12T15:25:48.977Z,18.62
2017-07-12T15:28:16.531Z,18.59
2017-07-12T15:30:44.107Z,18.55
2017-07-12T15:33:11.652Z,18.57
2017-07-12T15:35:39.239Z,18.57
2017-07-12T15:38:06.849Z,18.67
2017-07-12T15:40:34.533Z,18.76
2017-07-12T15:43:02.055Z,18.77
2017-07-12T15:45:29.607Z,18.83
2017-07-12T15:47:57.128Z,19.09
2017-07-12T15:50:24.648Z,18.78
2017-07-12T15:52:52.203Z,18.76
2017-07-12T15:55:19.737Z,18.47
2017-07-12T15:57:47.344Z,18.31
2017-07-12T16:00:14.908Z,18.36
2017-07-12T16:02:42.629Z,18.51
2017-07-12T16:05:10.143Z,18.61
2017-07-12T16:07:37.691Z,18.58
2017-07-12T16:10:05.205Z,18.48
2017-07-12T16:12:32.770Z,18.51
2017-07-12T16:15:00.306Z,18.50
2017-07-12T16:17:27.868Z,18.53
2017-07-12T16:19:55.520Z,18.39
2017-07-12T16:22:23.102Z,18.36
2017-07-12T16:24:50.657Z,18.42
2017-07-12T16:27:18.213Z,18.43
2017-07-12T16:29:45.736Z,18.37
2017-07-12T16:32:13.280Z,18.44
2017-07-12T16:34:40.815Z,18.48
2017-07-12T16:37:08.385Z,18.32
2017-07-12T16:39:35.919Z,18.32
2017-07-12T16:42:03.454Z,18.38
2017-07-12T16:44:30.999Z,18.01
2017-07-12T16:46:58.534Z,18.13
2017-07-12T16:49:26.089Z,18.15
2017-07-12T16:51:53.657Z,18.08
2017-07-12T16:54:21.240Z,17.86
2017-07-12T16:56:48.781Z,17.89
2017-07-12T16:59:16.328Z,17.89
2017-07-12T17:01:43.848Z,18.01
2017-07-12T17:04:11.445Z,17.88
2017-07-12T17:06:38.999Z,17.98
2017-07-12T17:09:06.608Z,18.09
2017-07-12T17:11:34.121Z,17.95
2017-07-12T17:14:01.669Z,17.89
2017-07-12T17:16:29.413Z,18.19
2017-07-12T17:18:56.977Z,18.19
2017-07-12T17:21:24.504Z,18.09
2017-07-12T17:23:52.271Z,18.20
2017-07-12T17:26:19.803Z,18.28
2017-07-12T17:28:47.353Z,18.34
2017-07-12T17:31:14.932Z,18.40
2017-07-12T17:33:42.440Z,18.46
2017-07-12T17:36:09.956Z,18.41
2017-07-12T17:38:37.511Z,18.57
2017-07-12T17:41:05.023Z,18.86
2017-07-12T17:43:32.630Z,19.10
2017-07-12T17:46:00.250Z,19.36
2017-07-12T17:48:27.820Z,19.52
2017-07-12T17:50:55.375Z,19.39
2017-07-12T17:53:22.884Z,19.51
2017-07-12T17:55:50.451Z,19.27
2017-07-12T17:58:17.965Z,18.99
2017-07-12T18:00:45.535Z,18.82
2017-07-12T18:03:13.035Z,18.86
2017-07-12T18:05:40.608Z,18.73
2017-07-12T18:08:08.122Z,18.59
2017-07-12T18:10:35.738Z,18.73
2017-07-12T18:13:03.290Z,18.71
2017-07-12T18:15:30.823Z,18.69
2017-07-12T18:17:58.367Z,18.81
2017-07-12T18:20:25.934Z,18.81
2017-07-12T18:22:53.466Z,18.66
2017-07-12T18:25:20.994Z,18.48
2017-07-12T18:27:48.614Z,18.32
2017-07-12T18:30:16.124Z,18.35
2017-07-12T18:32:43.676Z,18.42
2017-07-12T18:35:11.217Z,18.75
2017-07-12T18:37:38.771Z,18.83
2017-07-12T18:40:06.296Z,18.91
2017-07-12T18:42:33.872Z,18.90
2017-07-12T18:45:01.429Z,18.87
2017-07-12T18:47:28.943Z,18.73
2017-07-12T18:49:56.508Z,18.69
2017-07-12T18:52:24.030Z,18.54
2017-07-12T18:54:51.596Z,18.55
2017-07-12T18:57:19.125Z,18.48
2017-07-12T18:59:46.675Z,18.57
2017-07-12T19:02:14.229Z,18.48
2017-07-12T19:04:41.773Z,18.42
2017-07-12T19:07:09.288Z,18.40
2017-07-12T19:09:36.832Z,18.46
2017-07-12T19:12:04.339Z,18.42
2017-07-12T19:14:31.895Z,18.39
2017-07-12T19:16:59.411Z,18.39
2017-07-12T19:19:26.956Z,18.11
2017-07-12T19:21:54.491Z,18.17
2017-07-12T19:24:22.049Z,18.07
2017-07-12T19:26:49.601Z,18.05
2017-07-12T19:29:17.160Z,17.95
2017-07-12T19:31:44.699Z,17.93
2017-07-12T19:34:12.235Z,17.96
2017-07-12T19:36:39.847Z,17.88
2017-07-12T19:39:07.380Z,17.82
2017-07-12T19:41:34.935Z,17.62
2017-07-12T19:44:02.568Z,17.55
2017-07-12T19:46:30.199Z,17.57
2017-07-12T19:48:57.741Z,17.55
2017-07-12T19:51:25.288Z,17.60
2017-07-12T19:53:52.812Z,17.60
2017-07-12T19:56:20.511Z,17.54
2017-07-12T19:58:48.037Z,17.59
2017-07-12T20:01:15.720Z,17.64
2017-07-12T20:03:43.243Z,17.58
2017-07-12T20:06:10.848Z,17.49
2017-07-12T20:08:38.371Z,17.41
2017-07-12T20:11:06.093Z,17.39
2017-07-12T20:13:33.643Z,17.36
2017-07-12T20:16:01.169Z,17.40
2017-07-12T20:18:28.739Z,17.30
2017-07-12T20:20:56.268Z,17.00
2017-07-12T20:23:23.839Z,16.95
2017-07-12T20:25:51.384Z,17.14
2017-07-12T20:28:18.978Z,16.89
2017-07-12T20:30:46.511Z,16.86
2017-07-12T20:33:14.055Z,16.91
2017-07-12T20:35:41.611Z,16.85
2017-07-12T20:38:09.151Z,16.79
2017-07-12T20:40:36.671Z,16.76
2017-07-12T20:43:04.245Z,16.69
2017-07-12T20:45:31.767Z,16.68
2017-07-12T20:47:59.307Z,16.70
2017-07-12T20:50:26.852Z,16.63
2017-07-12T20:52:54.417Z,16.49
2017-07-12T20:55:21.944Z,16.63
2017-07-12T20:57:49.498Z,16.61
2017-07-12T21:00:17.031Z,16.56
2017-07-12T21:02:44.595Z,16.55
2017-07-12T21:05:12.123Z,16.50
2017-07-12T21:07:39.713Z,16.57
2017-07-12T21:10:07.300Z,16.50
2017-07-12T21:12:34.823Z,16.63
2017-07-12T21:15:02.443Z,16.63
2017-07-12T21:17:29.953Z,16.53
2017-07-12T21:19:57.569Z,16.68
2017-07-12T21:22:25.234Z,16.59
2017-07-12T21:24:52.879Z,16.55
2017-07-12T21:27:20.477Z,16.60
2017-07-12T21:29:48.011Z,16.50
2017-07-12T21:32:15.541Z,16.61
2017-07-12T21:34:43.088Z,16.59
2017-07-12T21:37:10.665Z,16.52
2017-07-12T21:39:38.267Z,16.39
2017-07-12T21:42:05.881Z,16.33
2017-07-12T21:44:33.452Z,16.27
2017-07-12T21:47:00.990Z,16.15
2017-07-12T21:49:28.543Z,16.12
2017-07-12T21:51:56.060Z,16.06
2017-07-12T21:54:41.114Z,16.19
2017-07-12T21:57:26.207Z,16.13
2017-07-12T22:00:11.118Z,16.12
2017-07-12T22:02:56.028Z,16.11
2017-07-12T22:05:40.923Z,16.00
2017-07-12T22:08:25.814Z,16.04
2017-07-12T22:11:10.817Z,16.05
2017-07-12T22:13:55.733Z,15.80
2017-07-12T22:16:40.887Z,15.85
2017-07-12T22:19:26.050Z,15.74
2017-07-12T22:22:11.087Z,15.80
2017-07-12T22:24:56.041Z,15.75
2017-07-12T22:27:41.261Z,15.77
2017-07-12T22:30:26.134Z,15.85
2017-07-12T22:33:11.200Z,16.07
2017-07-12T22:35:56.157Z,15.87
2017-07-12T22:38:29.147Z,15.86
2017-07-12T22:41:02.260Z,15.81
2017-07-12T22:43:31.142Z,15.98
2017-07-12T22:45:58.756Z,15.68
2017-07-12T22:48:26.318Z,15.96
2017-07-12T22:50:53.905Z,15.86
2017-07-12T22:53:21.438Z,15.69
2017-07-12T22:55:48.972Z,15.65
2017-07-12T22:58:16.512Z,15.64
2017-07-12T23:00:44.015Z,15.53
2017-07-12T23:03:11.572Z,15.31
2017-07-12T23:05:39.080Z,15.25
2017-07-12T23:08:06.628Z,14.98
2017-07-12T23:10:34.210Z,15.08
2017-07-12T23:13:01.854Z,15.12
2017-07-12T23:15:29.400Z,15.27
2017-07-12T23:17:57.032Z,15.21
2017-07-12T23:20:24.561Z,14.98
2017-07-12T23:22:52.080Z,14.84
2017-07-12T23:25:19.620Z,14.78
2017-07-12T23:27:47.153Z,14.60
2017-07-12T23:30:14.763Z,14.60
2017-07-12T23:32:42.355Z,14.68
2017-07-12T23:35:09.904Z,14.57
2017-07-12T23:37:37.541Z,14.34
2017-07-12T23:40:05.107Z,14.26
2017-07-12T23:42:32.623Z,14.20
2017-07-12T23:45:00.162Z,14.35
2017-07-12T23:47:27.690Z,14.42
2017-07-12T23:49:55.231Z,14.46
2017-07-12T23:52:22.759Z,14.45
2017-07-12T23:54:50.300Z,14.35
2017-07-12T23:57:17.815Z,14.32
2017-07-12T23:59:45.365Z,14.29
